createdAt,value
2023-01-30T00:02:50.514Z,9.20
2023-01-30T00:07:08.256Z,11.33
2023-01-30T00:11:26.384Z,10.20
2023-01-30T00:15:44.711Z,10.27
2023-01-30T00:24:20.572Z,9.18
2023-01-30T00:28:38.388Z,9.45
2023-01-30T00:32:57.911Z,9.73
2023-01-30T00:37:15.432Z,10.30
2023-01-30T00:41:51.663Z,9.40
2023-01-30T00:46:49.750Z,9.50
2023-01-30T00:51:07.564Z,8.40
2023-01-30T00:55:25.054Z,11.20
2023-01-30T00:59:42.605Z,10.43
2023-01-30T01:04:00.124Z,9.93
2023-01-30T01:08:17.953Z,9.63
2023-01-30T01:12:35.513Z,9.57
2023-01-30T01:16:53.145Z,9.60
2023-01-30T01:21:10.626Z,9.20
2023-01-30T01:25:28.417Z,9.17
2023-01-30T01:29:45.873Z,8.35
2023-01-30T01:34:03.576Z,8.20
2023-01-30T01:38:21.271Z,8.45
2023-01-30T01:42:40.270Z,8.27
2023-01-30T01:46:59.611Z,7.55
2023-01-30T01:51:29.388Z,7.57
2023-01-30T01:55:50.483Z,6.85
2023-01-30T02:00:17.356Z,7.13
2023-01-30T02:04:55.766Z,6.72
2023-01-30T02:09:13.584Z,6.55
2023-01-30T02:13:32.498Z,5.63
2023-01-30T02:17:50.143Z,5.70
2023-01-30T02:22:29.188Z,5.25
2023-01-30T02:27:17.217Z,5.38
2023-01-30T02:31:51.748Z,5.70
2023-01-30T02:36:29.363Z,5.38
2023-01-30T02:41:07.958Z,5.57
2023-01-30T02:45:42.521Z,5.80
2023-01-30T02:50:10.492Z,5.70
2023-01-30T02:54:28.178Z,5.47
2023-01-30T02:59:02.461Z,5.60
2023-01-30T03:03:49.487Z,5.47
2023-01-30T03:08:53.692Z,5.18
2023-01-30T03:13:26.337Z,5.70
2023-01-30T03:17:46.913Z,5.18
2023-01-30T03:22:04.923Z,5.57
2023-01-30T03:26:27.692Z,5.55
2023-01-30T03:30:45.245Z,5.35
2023-01-30T03:35:03.362Z,5.43
2023-01-30T03:39:20.958Z,6.20
2023-01-30T03:43:38.862Z,5.50
2023-01-30T03:47:56.307Z,5.22
2023-01-30T03:52:14.366Z,5.70
2023-01-30T03:56:32.299Z,5.95
2023-01-30T04:00:50.190Z,5.55
2023-01-30T04:05:07.920Z,5.47
2023-01-30T04:09:25.872Z,5.28
2023-01-30T04:13:43.325Z,4.93
2023-01-30T04:18:01.103Z,5.25
2023-01-30T04:22:18.619Z,4.95
2023-01-30T04:26:36.222Z,4.93
2023-01-30T04:30:53.974Z,4.53
2023-01-30T04:35:11.925Z,6.40
2023-01-30T04:39:29.400Z,5.43
2023-01-30T04:43:47.013Z,7.27
2023-01-30T04:48:04.885Z,5.53
2023-01-30T04:52:22.706Z,5.25
2023-01-30T04:56:40.164Z,4.82
2023-01-30T05:01:15.782Z,5.03
2023-01-30T05:05:34.260Z,5.03
2023-01-30T05:09:52.226Z,5.15
2023-01-30T05:14:09.687Z,4.93
2023-01-30T05:18:27.363Z,5.13
2023-01-30T05:22:44.868Z,5.93
2023-01-30T05:27:03.136Z,5.25
2023-01-30T05:31:20.739Z,6.00
2023-01-30T05:35:38.258Z,6.60
2023-01-30T05:39:55.688Z,6.23
2023-01-30T05:44:13.214Z,6.07
2023-01-30T05:48:31.277Z,5.80
2023-01-30T05:52:49.427Z,5.40
2023-01-30T05:57:06.881Z,5.63
2023-01-30T06:01:25.105Z,5.73
2023-01-30T06:10:00.140Z,6.40
2023-01-30T06:14:17.572Z,6.00
2023-01-30T06:18:35.863Z,5.97
2023-01-30T06:22:53.320Z,6.40
2023-01-30T06:27:10.927Z,6.20
2023-01-30T06:31:28.646Z,5.78
2023-01-30T06:35:50.512Z,6.75
2023-01-30T06:40:08.887Z,5.95
2023-01-30T06:44:26.448Z,7.72
2023-01-30T06:48:44.245Z,8.95
2023-01-30T06:53:07.876Z,6.90
2023-01-30T06:57:25.309Z,5.22
2023-01-30T07:01:43.295Z,6.40
2023-01-30T07:06:00.896Z,6.40
2023-01-30T07:10:18.917Z,7.35
2023-01-30T07:14:36.379Z,7.00
2023-01-30T07:18:54.250Z,8.18
2023-01-30T07:23:11.683Z,7.18
2023-01-30T07:27:29.371Z,8.93
2023-01-30T07:31:46.881Z,9.43
2023-01-30T07:36:04.906Z,8.63
2023-01-30T07:40:23.255Z,7.70
2023-01-30T07:44:40.909Z,8.10
2023-01-30T07:48:59.812Z,9.38
2023-01-30T07:53:21.577Z,7.97
2023-01-30T07:57:38.993Z,8.93
2023-01-30T08:01:59.065Z,9.23
2023-01-30T08:06:17.230Z,8.23
2023-01-30T08:10:35.027Z,9.57
2023-01-30T08:14:52.462Z,12.20
2023-01-30T08:19:10.339Z,15.98
2023-01-30T08:23:28.550Z,8.95
2023-01-30T08:27:46.206Z,8.48
2023-01-30T08:32:03.790Z,7.07
2023-01-30T08:36:21.406Z,9.93
2023-01-30T08:40:39.159Z,9.73
2023-01-30T08:44:56.801Z,9.45
2023-01-30T08:49:17.250Z,8.32
2023-01-30T08:53:34.879Z,8.80
2023-01-30T08:57:55.895Z,7.07
2023-01-30T09:02:14.154Z,12.25
2023-01-30T09:06:31.881Z,13.32
2023-01-30T09:10:49.490Z,10.73
2023-01-30T09:15:07.914Z,11.75
2023-01-30T09:19:28.072Z,9.52
2023-01-30T09:23:45.572Z,11.55
2023-01-30T09:28:03.173Z,9.20
2023-01-30T09:32:20.684Z,9.40
2023-01-30T09:36:38.207Z,15.77
2023-01-30T09:41:30.775Z,13.17
2023-01-30T09:46:13.245Z,13.45
2023-01-30T09:51:04.752Z,12.20
2023-01-30T09:55:35.094Z,11.02
2023-01-30T10:00:10.173Z,9.43
2023-01-30T10:04:40.353Z,11.20
2023-01-30T10:09:36.732Z,18.15
2023-01-30T10:14:32.360Z,18.75
2023-01-30T10:19:00.320Z,9.63
2023-01-30T10:23:20.960Z,9.27
2023-01-30T10:27:52.341Z,15.45
2023-01-30T10:32:32.261Z,15.45
2023-01-30T10:37:02.675Z,10.88
2023-01-30T10:41:31.196Z,15.13
2023-01-30T10:46:14.953Z,11.50
2023-01-30T10:50:54.055Z,10.93
2023-01-30T10:55:52.358Z,10.70
2023-01-30T11:00:36.396Z,8.70
2023-01-30T11:04:59.997Z,11.93
2023-01-30T11:09:17.668Z,9.45
2023-01-30T11:13:35.155Z,9.63
2023-01-30T11:18:37.882Z,22.93
2023-01-30T11:23:00.593Z,12.45
2023-01-30T11:27:27.804Z,23.10
2023-01-30T11:31:50.942Z,20.05
2023-01-30T11:36:28.737Z,17.55
2023-01-30T11:40:46.201Z,23.83
2023-01-30T11:45:16.799Z,14.73
2023-01-30T11:49:58.845Z,18.98
2023-01-30T11:54:42.141Z,14.10
2023-01-30T11:59:24.676Z,20.08
2023-01-30T12:03:50.960Z,15.32
2023-01-30T12:08:42.321Z,11.90
2023-01-30T12:13:51.682Z,20.27
2023-01-30T12:18:27.354Z,15.95
2023-01-30T12:22:52.694Z,15.90
2023-01-30T12:27:38.590Z,12.23
2023-01-30T12:36:45.542Z,17.55
2023-01-30T12:41:23.838Z,19.25
2023-01-30T12:45:54.120Z,11.45
2023-01-30T12:50:41.318Z,11.90
2023-01-30T12:55:31.973Z,12.80
2023-01-30T13:00:08.028Z,12.35
2023-01-30T13:04:56.252Z,10.07
2023-01-30T13:09:37.265Z,11.05
2023-01-30T13:14:29.023Z,9.73
2023-01-30T13:18:57.943Z,9.70
2023-01-30T13:23:39.297Z,13.45
2023-01-30T13:28:02.533Z,10.40
2023-01-30T13:32:43.719Z,10.07
2023-01-30T13:37:21.059Z,9.77
2023-01-30T13:41:45.777Z,9.65
2023-01-30T13:46:10.376Z,10.10
2023-01-30T13:50:53.491Z,7.07
2023-01-30T13:55:43.173Z,8.80
2023-01-30T14:00:31.890Z,11.07
2023-01-30T14:04:57.834Z,9.90
2023-01-30T14:09:26.628Z,9.90
2023-01-30T14:13:53.756Z,8.73
2023-01-30T14:18:27.369Z,11.50
2023-01-30T14:22:55.536Z,9.88
2023-01-30T14:27:32.340Z,13.63
2023-01-30T14:31:50.971Z,10.60
2023-01-30T14:36:14.587Z,11.43
2023-01-30T14:40:35.539Z,11.48
2023-01-30T14:45:16.879Z,12.63
2023-01-30T14:49:35.544Z,11.30
2023-01-30T14:54:07.344Z,32.60
2023-01-30T14:58:25.087Z,16.60
2023-01-30T15:02:49.392Z,19.70
2023-01-30T15:07:18.799Z,25.55
2023-01-30T15:11:37.586Z,24.92
2023-01-30T15:16:22.200Z,18.85
2023-01-30T15:21:03.645Z,31.02
2023-01-30T15:25:36.875Z,14.48
2023-01-30T15:30:36.402Z,15.40
2023-01-30T15:35:12.473Z,16.90
2023-01-30T15:39:30.148Z,23.95
2023-01-30T15:44:18.690Z,13.67
2023-01-30T15:49:10.479Z,13.73
2023-01-30T15:53:44.386Z,13.00
2023-01-30T15:58:09.475Z,17.00
2023-01-30T16:02:32.579Z,24.48
2023-01-30T16:06:50.197Z,21.50
2023-01-30T16:11:07.794Z,19.67
2023-01-30T16:15:39.513Z,31.65
2023-01-30T16:19:59.840Z,28.50
2023-01-30T16:24:32.039Z,18.52
2023-01-30T16:28:51.709Z,17.02
2023-01-30T16:33:11.095Z,15.25
2023-01-30T16:37:31.161Z,15.25
2023-01-30T16:41:56.193Z,15.68
2023-01-30T16:46:50.868Z,16.73
2023-01-30T16:51:21.508Z,15.85
2023-01-30T16:55:39.153Z,16.08
2023-01-30T16:59:56.739Z,15.50
2023-01-30T17:04:24.300Z,14.10
2023-01-30T17:08:54.559Z,21.53
2023-01-30T17:13:35.764Z,17.33
2023-01-30T17:17:53.276Z,37.38
2023-01-30T17:22:24.566Z,47.10
2023-01-30T17:26:42.153Z,29.10
2023-01-30T17:30:59.860Z,17.50
2023-01-30T17:35:18.832Z,15.95
2023-01-30T17:39:36.536Z,15.23
2023-01-30T17:43:54.415Z,14.70
2023-01-30T17:48:13.540Z,16.45
2023-01-30T17:52:31.015Z,13.95
2023-01-30T17:56:56.444Z,12.80
2023-01-30T18:01:16.304Z,10.98
2023-01-30T18:05:34.049Z,12.40
2023-01-30T18:09:51.468Z,11.63
2023-01-30T18:14:09.346Z,13.13
2023-01-30T18:18:27.102Z,12.30
2023-01-30T18:22:44.862Z,11.45
2023-01-30T18:27:02.336Z,12.90
2023-01-30T18:31:22.245Z,15.33
2023-01-30T18:35:39.807Z,18.15
2023-01-30T18:39:57.391Z,17.70
2023-01-30T18:44:14.945Z,22.77
2023-01-30T18:48:34.052Z,22.08
2023-01-30T18:52:51.669Z,17.85
2023-01-30T18:57:09.352Z,11.47
2023-01-30T19:01:28.782Z,13.85
2023-01-30T19:05:46.363Z,12.55
2023-01-30T19:10:04.835Z,13.97
2023-01-30T19:14:22.317Z,13.35
2023-01-30T19:18:39.883Z,15.33
2023-01-30T19:22:57.603Z,10.37
2023-01-30T19:27:15.347Z,9.38
2023-01-30T19:31:33.237Z,10.23
2023-01-30T19:35:51.226Z,10.82
2023-01-30T19:40:11.198Z,10.20
2023-01-30T19:44:28.817Z,13.20
2023-01-30T19:48:47.295Z,11.23
2023-01-30T19:53:05.068Z,10.25
2023-01-30T19:57:22.579Z,19.90
2023-01-30T20:01:41.705Z,12.00
2023-01-30T20:06:15.193Z,10.77
2023-01-30T20:10:33.054Z,23.88
2023-01-30T20:14:50.615Z,19.17
2023-01-30T20:19:13.943Z,29.43
2023-01-30T20:23:31.369Z,16.95
2023-01-30T20:27:48.965Z,13.40
2023-01-30T20:32:06.214Z,11.68
2023-01-30T20:36:26.444Z,14.70
2023-01-30T20:40:44.034Z,33.85
2023-01-30T20:45:04.774Z,20.40
2023-01-30T20:49:23.518Z,11.93
2023-01-30T20:53:51.411Z,12.23
2023-01-30T20:58:10.216Z,11.52
2023-01-30T21:02:28.608Z,9.48
2023-01-30T21:06:47.198Z,9.57
2023-01-30T21:11:15.541Z,10.05
2023-01-30T21:15:32.597Z,8.02
2023-01-30T21:19:50.146Z,6.00
2023-01-30T21:24:13.601Z,5.70
2023-01-30T21:28:32.149Z,4.95
2023-01-30T21:32:49.751Z,4.45
2023-01-30T21:37:26.327Z,3.30
2023-01-30T21:41:46.098Z,2.85
2023-01-30T21:46:04.981Z,2.83
2023-01-30T21:50:22.706Z,2.60
2023-01-30T21:54:40.151Z,3.37
2023-01-30T21:59:03.223Z,3.03
2023-01-30T22:03:20.705Z,2.58
2023-01-30T22:07:38.759Z,2.27
2023-01-30T22:11:56.361Z,2.88
2023-01-30T22:16:18.525Z,2.73
2023-01-30T22:20:36.258Z,2.08
2023-01-30T22:24:53.873Z,2.10
2023-01-30T22:29:11.328Z,1.77
2023-01-30T22:33:29.736Z,2.03
2023-01-30T22:37:47.328Z,2.40
2023-01-30T22:42:05.171Z,1.90
2023-01-30T22:46:28.603Z,1.85
2023-01-30T22:50:46.276Z,2.45
2023-01-30T22:55:03.824Z,3.10
2023-01-30T22:59:22.078Z,2.50
2023-01-30T23:03:40.856Z,1.98
2023-01-30T23:07:58.503Z,2.47
2023-01-30T23:12:54.559Z,2.67
2023-01-30T23:17:31.315Z,2.17
2023-01-30T23:21:48.747Z,2.75
2023-01-30T23:26:06.566Z,2.70
2023-01-30T23:30:24.122Z,3.35
2023-01-30T23:34:41.734Z,2.90
2023-01-30T23:39:00.728Z,3.10
2023-01-30T23:43:20.462Z,3.45
2023-01-30T23:47:38.003Z,3.00
2023-01-30T23:51:55.665Z,2.97
2023-01-30T23:56:14.406Z,2.92
